createdAt,value
2023-04-14T00:00:40.189Z,0.00
2023-04-14T00:03:07.555Z,0.00
2023-04-14T00:05:35.005Z,0.00
2023-04-14T00:08:02.137Z,0.00
2023-04-14T00:10:28.687Z,0.00
2023-04-14T00:12:58.147Z,0.00
2023-04-14T00:15:24.774Z,0.00
2023-04-14T00:17:51.423Z,0.00
2023-04-14T00:20:17.894Z,0.00
2023-04-14T00:22:44.385Z,0.00
2023-04-14T00:25:11.140Z,0.00
2023-04-14T00:27:37.645Z,0.00
2023-04-14T00:30:04.511Z,0.00
2023-04-14T00:32:31.083Z,0.00
2023-04-14T00:34:57.768Z,0.00
2023-04-14T00:37:24.334Z,0.00
2023-04-14T00:39:50.857Z,0.00
2023-04-14T00:42:17.292Z,0.00
2023-04-14T00:44:43.862Z,0.00
2023-04-14T00:47:11.042Z,0.00
2023-04-14T00:49:37.734Z,0.00
2023-04-14T00:52:04.571Z,0.00
2023-04-14T00:54:32.556Z,0.00
2023-04-14T00:56:59.044Z,1.00
2023-04-14T00:59:25.916Z,0.00
2023-04-14T01:01:52.556Z,0.00
2023-04-14T01:04:19.942Z,0.00
2023-04-14T01:06:46.494Z,0.00
2023-04-14T01:09:16.448Z,0.00
2023-04-14T01:12:03.187Z,0.00
2023-04-14T01:14:29.657Z,0.00
2023-04-14T01:17:02.547Z,0.00
2023-04-14T01:19:38.253Z,0.00
2023-04-14T01:22:06.529Z,0.00
2023-04-14T01:24:52.364Z,0.00
2023-04-14T01:27:21.569Z,0.00
2023-04-14T01:29:51.186Z,0.00
2023-04-14T01:32:20.068Z,0.25
2023-04-14T01:34:52.404Z,0.00
2023-04-14T01:37:26.391Z,0.50
2023-04-14T01:39:53.972Z,0.00
2023-04-14T01:42:23.415Z,0.00
2023-04-14T01:44:52.536Z,0.00
2023-04-14T01:47:20.417Z,0.25
2023-04-14T01:49:48.657Z,0.00
2023-04-14T01:52:16.326Z,0.00
2023-04-14T01:54:43.728Z,0.00
2023-04-14T01:57:11.991Z,0.00
2023-04-14T01:59:41.812Z,0.00
2023-04-14T02:02:10.144Z,0.00
2023-04-14T02:04:38.002Z,0.00
2023-04-14T02:07:05.834Z,0.00
2023-04-14T02:09:52.323Z,0.00
2023-04-14T02:12:19.608Z,1.00
2023-04-14T02:14:46.896Z,0.50
2023-04-14T02:17:13.929Z,1.00
2023-04-14T02:19:42.568Z,0.00
2023-04-14T02:22:09.205Z,0.00
2023-04-14T02:24:35.781Z,0.00
2023-04-14T02:27:07.276Z,0.00
2023-04-14T02:29:35.469Z,0.00
2023-04-14T02:32:06.277Z,0.00
2023-04-14T02:34:37.896Z,0.00
2023-04-14T02:37:09.522Z,0.00
2023-04-14T02:39:38.778Z,0.00
2023-04-14T02:42:11.744Z,0.00
2023-04-14T02:44:43.134Z,0.00
2023-04-14T02:47:10.647Z,0.00
2023-04-14T02:49:38.222Z,0.00
2023-04-14T02:52:06.089Z,0.00
2023-04-14T02:54:34.898Z,0.00
2023-04-14T02:57:02.556Z,0.00
2023-04-14T02:59:30.131Z,0.00
2023-04-14T03:01:57.573Z,0.00
2023-04-14T03:04:24.717Z,0.00
2023-04-14T03:06:51.500Z,0.00
2023-04-14T03:09:18.578Z,0.00
2023-04-14T03:11:45.677Z,0.00
2023-04-14T03:14:12.743Z,0.00
2023-04-14T03:16:40.943Z,0.00
2023-04-14T03:19:08.300Z,0.00
2023-04-14T03:21:35.925Z,0.00
2023-04-14T03:24:02.925Z,0.00
2023-04-14T03:26:31.062Z,0.00
2023-04-14T03:28:59.152Z,0.00
2023-04-14T03:31:31.990Z,0.00
2023-04-14T03:34:00.002Z,0.00
2023-04-14T03:36:27.291Z,0.00
2023-04-14T03:38:57.319Z,0.00
2023-04-14T03:41:26.203Z,0.00
2023-04-14T03:43:54.859Z,0.00
2023-04-14T03:46:24.277Z,0.00
2023-04-14T03:48:52.745Z,0.00
2023-04-14T03:51:21.246Z,0.00
2023-04-14T03:53:48.309Z,0.00
2023-04-14T03:56:15.741Z,0.00
2023-04-14T03:58:44.380Z,0.00
2023-04-14T04:01:11.903Z,0.00
2023-04-14T04:03:39.771Z,0.00
2023-04-14T04:06:07.221Z,0.00
2023-04-14T04:08:36.116Z,0.00
2023-04-14T04:11:05.855Z,0.00
2023-04-14T04:13:32.938Z,0.00
2023-04-14T04:15:59.499Z,0.00
2023-04-14T04:18:27.422Z,0.00
2023-04-14T04:20:58.542Z,0.00
2023-04-14T04:23:26.385Z,0.00
2023-04-14T04:25:53.476Z,0.00
2023-04-14T04:28:20.144Z,0.00
2023-04-14T04:30:47.431Z,0.00
2023-04-14T04:33:14.161Z,0.00
2023-04-14T04:35:42.694Z,0.40
2023-04-14T04:38:11.523Z,0.00
2023-04-14T04:40:41.468Z,1.00
2023-04-14T04:43:07.910Z,1.00
2023-04-14T04:45:37.591Z,0.00
2023-04-14T04:48:04.607Z,0.00
2023-04-14T04:50:31.112Z,0.50
2023-04-14T04:52:57.565Z,0.00
2023-04-14T04:55:24.058Z,0.67
2023-04-14T04:57:50.513Z,0.00
2023-04-14T05:00:17.732Z,0.00
2023-04-14T05:02:44.388Z,0.80
2023-04-14T05:05:11.224Z,0.00
2023-04-14T05:07:37.634Z,6.00
2023-04-14T05:10:04.252Z,9.60
2023-04-14T05:12:30.865Z,9.40
2023-04-14T05:14:57.348Z,6.00
2023-04-14T05:17:23.905Z,4.00
2023-04-14T05:19:50.602Z,6.00
2023-04-14T05:22:17.186Z,3.75
2023-04-14T05:24:48.532Z,4.00
2023-04-14T05:27:15.041Z,2.00
2023-04-14T05:29:41.860Z,2.00
2023-04-14T05:32:08.544Z,3.00
2023-04-14T05:34:34.985Z,2.80
2023-04-14T05:37:01.444Z,1.00
2023-04-14T05:39:28.024Z,2.00
2023-04-14T05:41:54.479Z,1.00
2023-04-14T05:44:20.964Z,5.80
2023-04-14T05:46:47.641Z,2.20
2023-04-14T05:49:14.280Z,3.00
2023-04-14T05:51:40.966Z,3.00
2023-04-14T05:54:07.446Z,9.00
2023-04-14T05:56:34.360Z,7.00
2023-04-14T05:59:01.736Z,12.00
2023-04-14T06:01:28.356Z,5.25
2023-04-14T06:03:55.207Z,4.00
2023-04-14T06:06:21.964Z,1.80
2023-04-14T06:08:48.478Z,1.20
2023-04-14T06:11:15.023Z,0.25
2023-04-14T06:13:41.474Z,2.33
2023-04-14T06:16:08.488Z,1.20
2023-04-14T06:18:35.033Z,2.00
2023-04-14T06:21:01.745Z,1.25
2023-04-14T06:23:28.814Z,2.00
2023-04-14T06:25:55.763Z,1.00
2023-04-14T06:28:25.997Z,0.80
2023-04-14T06:30:53.143Z,0.00
2023-04-14T06:33:19.649Z,0.00
2023-04-14T06:35:46.394Z,0.00
2023-04-14T06:38:12.877Z,1.00
2023-04-14T06:40:39.520Z,1.00
2023-04-14T06:43:06.499Z,1.00
2023-04-14T06:45:32.996Z,0.50
2023-04-14T06:47:59.533Z,0.20
2023-04-14T06:50:26.289Z,1.00
2023-04-14T06:52:52.762Z,0.40
2023-04-14T06:55:19.251Z,0.00
2023-04-14T06:57:45.709Z,0.00
2023-04-14T07:00:12.740Z,0.00
2023-04-14T07:02:39.290Z,0.00
2023-04-14T07:05:06.323Z,0.00
2023-04-14T07:07:37.160Z,0.25
2023-04-14T07:10:03.916Z,0.00
2023-04-14T07:12:30.463Z,1.00
2023-04-14T07:14:56.950Z,1.00
2023-04-14T07:17:23.452Z,0.00
2023-04-14T07:19:49.956Z,0.00
2023-04-14T07:22:16.717Z,0.00
2023-04-14T07:24:43.191Z,0.00
2023-04-14T07:27:15.265Z,1.00
2023-04-14T07:29:42.594Z,0.00
2023-04-14T07:32:09.246Z,0.00
2023-04-14T07:34:35.841Z,3.40
2023-04-14T07:37:02.407Z,5.50
2023-04-14T07:39:29.526Z,3.50
2023-04-14T07:41:58.750Z,0.00
2023-04-14T07:44:25.296Z,0.00
2023-04-14T07:46:51.814Z,0.00
2023-04-14T07:49:18.380Z,0.00
2023-04-14T07:51:44.900Z,0.00
2023-04-14T07:54:11.494Z,2.00
2023-04-14T07:56:37.961Z,0.20
2023-04-14T07:59:04.471Z,1.00
2023-04-14T08:01:31.089Z,1.00
2023-04-14T08:03:57.896Z,2.60
2023-04-14T08:06:24.587Z,2.25
2023-04-14T08:08:51.735Z,0.40
2023-04-14T08:11:18.301Z,0.25
2023-04-14T08:13:44.905Z,1.00
2023-04-14T08:16:11.458Z,1.00
2023-04-14T08:18:39.461Z,7.00
2023-04-14T08:21:05.930Z,9.80
2023-04-14T08:23:32.410Z,1.00
2023-04-14T08:25:58.870Z,0.00
2023-04-14T08:28:25.430Z,0.80
2023-04-14T08:30:51.881Z,1.60
2023-04-14T08:33:19.448Z,0.00
2023-04-14T08:35:45.927Z,0.20
2023-04-14T08:38:23.056Z,1.00
2023-04-14T08:40:54.490Z,1.50
2023-04-14T08:43:20.990Z,0.50
2023-04-14T08:45:48.733Z,1.00
2023-04-14T08:48:17.785Z,0.00
2023-04-14T08:50:49.522Z,1.00
2023-04-14T08:53:16.532Z,1.00
2023-04-14T08:55:43.435Z,0.80
2023-04-14T08:58:13.118Z,0.00
2023-04-14T09:00:44.904Z,1.00
2023-04-14T09:03:11.823Z,0.00
2023-04-14T09:05:38.601Z,0.40
2023-04-14T09:08:05.227Z,0.40
2023-04-14T09:10:31.902Z,0.00
2023-04-14T09:12:58.353Z,0.00
2023-04-14T09:15:27.407Z,0.00
2023-04-14T09:17:54.530Z,0.00
2023-04-14T09:20:36.840Z,0.00
2023-04-14T09:23:07.705Z,0.20
2023-04-14T09:25:34.213Z,1.00
2023-04-14T09:28:00.783Z,0.00
2023-04-14T09:30:27.530Z,0.00
2023-04-14T09:32:54.210Z,0.25
2023-04-14T09:35:20.729Z,0.20
2023-04-14T09:37:48.741Z,0.80
2023-04-14T09:40:29.578Z,0.40
2023-04-14T09:42:56.693Z,0.50
2023-04-14T09:45:24.411Z,0.40
2023-04-14T09:48:06.183Z,0.00
2023-04-14T09:50:33.628Z,0.00
2023-04-14T09:53:04.254Z,0.00
2023-04-14T09:55:31.237Z,0.75
2023-04-14T09:57:58.091Z,1.60
2023-04-14T10:00:24.744Z,0.60
2023-04-14T10:02:52.380Z,2.00
2023-04-14T10:05:19.599Z,0.00
2023-04-14T10:07:46.701Z,0.00
2023-04-14T10:10:13.864Z,0.20
2023-04-14T10:12:46.053Z,0.00
2023-04-14T10:15:13.113Z,0.00
2023-04-14T10:17:39.791Z,1.00
2023-04-14T10:20:07.087Z,0.00
2023-04-14T10:22:33.847Z,1.00
2023-04-14T10:25:00.322Z,0.00
2023-04-14T10:27:28.042Z,0.00
2023-04-14T10:29:55.192Z,0.00
2023-04-14T10:32:23.027Z,1.00
2023-04-14T10:34:55.628Z,0.00
2023-04-14T10:37:22.131Z,0.00
2023-04-14T10:39:58.687Z,0.00
2023-04-14T10:42:25.178Z,0.00
2023-04-14T10:45:05.828Z,1.80
2023-04-14T10:47:32.841Z,1.00
2023-04-14T10:50:09.817Z,0.00
2023-04-14T10:52:36.277Z,1.00
2023-04-14T10:55:09.526Z,1.00
2023-04-14T10:57:38.853Z,0.00
2023-04-14T11:00:21.522Z,0.00
2023-04-14T11:02:54.988Z,0.00
2023-04-14T11:05:21.843Z,0.00
2023-04-14T11:07:51.692Z,0.00
2023-04-14T11:10:30.000Z,0.25
2023-04-14T11:13:07.642Z,0.00
2023-04-14T11:15:46.736Z,0.00
2023-04-14T11:18:33.710Z,0.00
2023-04-14T11:21:07.010Z,0.00
2023-04-14T11:23:34.320Z,0.75
2023-04-14T11:26:01.367Z,0.00
2023-04-14T11:28:35.232Z,0.40
2023-04-14T11:31:03.445Z,1.00
2023-04-14T11:33:34.499Z,0.60
2023-04-14T11:36:01.753Z,0.00
2023-04-14T11:38:28.390Z,0.00
2023-04-14T11:40:56.769Z,0.00
2023-04-14T11:43:23.877Z,0.00
2023-04-14T11:45:51.638Z,0.60
2023-04-14T11:48:20.922Z,1.20
2023-04-14T11:50:47.982Z,0.00
2023-04-14T11:53:16.040Z,0.00
2023-04-14T11:55:52.104Z,0.00
2023-04-14T11:58:23.597Z,0.00
2023-04-14T12:00:51.046Z,0.00
2023-04-14T12:03:18.856Z,0.00
2023-04-14T12:05:45.523Z,0.40
2023-04-14T12:08:12.745Z,0.00
2023-04-14T12:10:40.968Z,1.00
2023-04-14T12:13:11.357Z,1.00
2023-04-14T12:15:41.659Z,0.00
2023-04-14T12:18:09.615Z,1.00
2023-04-14T12:20:45.973Z,0.00
2023-04-14T12:23:12.887Z,0.00
2023-04-14T12:25:39.716Z,1.00
2023-04-14T12:28:06.700Z,0.00
2023-04-14T12:30:33.852Z,0.50
2023-04-14T12:33:06.304Z,0.60
2023-04-14T12:35:35.659Z,0.00
2023-04-14T12:38:08.357Z,1.80
2023-04-14T12:40:43.873Z,3.00
2023-04-14T12:43:10.729Z,2.00
2023-04-14T12:45:41.245Z,1.00
2023-04-14T12:48:08.526Z,1.00
2023-04-14T12:50:35.052Z,2.00
2023-04-14T12:53:01.693Z,3.80
2023-04-14T12:55:29.775Z,1.00
2023-04-14T12:57:59.778Z,3.00
2023-04-14T13:00:27.692Z,1.40
2023-04-14T13:02:55.749Z,0.80
2023-04-14T13:05:22.550Z,3.00
2023-04-14T13:07:48.991Z,2.00
2023-04-14T13:10:15.927Z,1.00
2023-04-14T13:12:42.571Z,1.00
2023-04-14T13:15:09.253Z,2.60
2023-04-14T13:17:55.732Z,0.25
2023-04-14T13:20:22.421Z,1.60
2023-04-14T13:22:48.926Z,2.00
2023-04-14T13:25:15.463Z,2.00
2023-04-14T13:27:41.917Z,4.00
2023-04-14T13:30:08.868Z,1.20
2023-04-14T13:32:35.388Z,1.00
2023-04-14T13:35:01.937Z,4.60
2023-04-14T13:37:28.390Z,5.00
2023-04-14T13:39:55.093Z,4.00
2023-04-14T13:42:21.551Z,6.25
2023-04-14T13:44:48.214Z,3.00
2023-04-14T13:47:14.634Z,0.40
2023-04-14T13:49:41.084Z,1.40
2023-04-14T13:52:08.233Z,2.00
2023-04-14T13:54:35.455Z,2.00
2023-04-14T13:57:02.050Z,4.50
2023-04-14T13:59:28.537Z,1.00
2023-04-14T14:01:55.156Z,1.75
2023-04-14T14:04:21.748Z,2.00
2023-04-14T14:06:48.402Z,4.00
2023-04-14T14:09:14.841Z,2.00
2023-04-14T14:11:44.220Z,1.40
2023-04-14T14:14:12.874Z,4.00
2023-04-14T14:16:39.428Z,1.60
2023-04-14T14:19:08.264Z,4.25
2023-04-14T14:21:34.852Z,3.00
2023-04-14T14:24:01.763Z,2.00
2023-04-14T14:26:28.557Z,2.50
2023-04-14T14:28:54.979Z,1.00
2023-04-14T14:31:21.646Z,2.00
2023-04-14T14:33:48.259Z,2.50
2023-04-14T14:36:15.415Z,7.40
2023-04-14T14:38:41.979Z,4.20
2023-04-14T14:41:08.515Z,5.00
2023-04-14T14:43:35.113Z,4.50
2023-04-14T14:46:01.739Z,4.50
2023-04-14T14:48:28.407Z,2.00
2023-04-14T14:50:54.819Z,3.75
2023-04-14T14:53:21.231Z,3.50
2023-04-14T14:55:47.644Z,3.20
2023-04-14T14:58:14.102Z,2.00
2023-04-14T15:00:40.536Z,4.00
2023-04-14T15:03:07.073Z,2.00
2023-04-14T15:05:33.770Z,1.60
2023-04-14T15:08:00.351Z,3.00
2023-04-14T15:10:26.960Z,2.00
2023-04-14T15:12:53.856Z,1.00
2023-04-14T15:15:20.362Z,1.50
2023-04-14T15:17:47.022Z,2.80
2023-04-14T15:20:13.587Z,3.00
2023-04-14T15:22:40.139Z,2.00
2023-04-14T15:25:09.181Z,3.00
2023-04-14T15:27:35.955Z,3.00
2023-04-14T15:30:03.424Z,2.00
2023-04-14T15:32:31.070Z,1.00
2023-04-14T15:34:57.805Z,1.40
2023-04-14T15:37:25.570Z,4.00
2023-04-14T15:39:52.108Z,2.00
2023-04-14T15:42:18.556Z,1.00
2023-04-14T15:44:45.055Z,0.40
2023-04-14T15:47:11.663Z,2.00
2023-04-14T15:49:38.172Z,0.00
2023-04-14T15:52:05.965Z,1.00
2023-04-14T15:54:33.515Z,1.20
2023-04-14T15:57:00.062Z,3.00
2023-04-14T15:59:27.848Z,2.20
2023-04-14T16:01:54.597Z,0.75
2023-04-14T16:04:21.290Z,3.00
2023-04-14T16:06:47.925Z,2.60
2023-04-14T16:09:14.383Z,1.40
2023-04-14T16:11:40.950Z,1.00
2023-04-14T16:14:07.446Z,1.00
2023-04-14T16:16:33.900Z,1.00
2023-04-14T16:19:00.801Z,1.60
2023-04-14T16:21:30.261Z,3.00
2023-04-14T16:23:56.793Z,1.00
2023-04-14T16:26:26.005Z,1.00
2023-04-14T16:28:52.647Z,2.00
2023-04-14T16:31:19.150Z,4.00
2023-04-14T16:33:45.951Z,3.60
2023-04-14T16:36:12.861Z,3.00
2023-04-14T16:38:39.596Z,2.00
2023-04-14T16:41:06.064Z,2.00
2023-04-14T16:43:32.795Z,2.00
2023-04-14T16:46:03.266Z,2.60
2023-04-14T16:48:30.064Z,3.20
2023-04-14T16:50:56.533Z,1.00
2023-04-14T16:53:22.975Z,2.60
2023-04-14T16:55:49.425Z,3.40
2023-04-14T16:58:15.923Z,2.33
2023-04-14T17:00:42.363Z,5.50
2023-04-14T17:03:09.025Z,3.00
2023-04-14T17:05:35.677Z,2.00
2023-04-14T17:08:02.294Z,6.00
2023-04-14T17:10:29.837Z,9.20
2023-04-14T17:12:56.432Z,10.60
2023-04-14T17:15:23.726Z,10.00
2023-04-14T17:17:50.358Z,4.50
2023-04-14T17:20:16.823Z,4.80
2023-04-14T17:22:43.884Z,3.40
2023-04-14T17:25:10.966Z,2.50
2023-04-14T17:27:38.070Z,2.75
2023-04-14T17:30:05.570Z,2.60
2023-04-14T17:32:32.669Z,4.80
2023-04-14T17:34:59.422Z,6.00
2023-04-14T17:37:26.770Z,4.40
2023-04-14T17:39:53.306Z,4.60
2023-04-14T17:42:19.774Z,5.00
2023-04-14T17:44:46.209Z,6.00
2023-04-14T17:47:15.836Z,6.80
2023-04-14T17:49:42.993Z,4.00
2023-04-14T17:52:10.412Z,2.00
2023-04-14T17:54:36.924Z,4.60
2023-04-14T17:57:04.321Z,5.00
2023-04-14T17:59:31.107Z,3.40
2023-04-14T18:01:57.654Z,4.50
2023-04-14T18:04:26.792Z,4.40
2023-04-14T18:06:53.705Z,6.00
2023-04-14T18:09:20.147Z,4.40
2023-04-14T18:11:46.625Z,5.00
2023-04-14T18:14:13.792Z,8.00
2023-04-14T18:16:40.671Z,6.00
2023-04-14T18:19:07.157Z,4.50
2023-04-14T18:21:33.665Z,6.60
2023-04-14T18:26:33.005Z,4.60
2023-04-14T18:28:59.758Z,3.50
2023-04-14T18:31:27.131Z,10.40
2023-04-14T18:33:53.946Z,7.00
2023-04-14T18:36:20.347Z,6.50
2023-04-14T18:38:46.794Z,6.00
2023-04-14T18:41:13.592Z,6.00
2023-04-14T18:43:39.992Z,4.00
2023-04-14T18:46:06.667Z,5.00
2023-04-14T18:48:33.435Z,5.60
2023-04-14T18:51:02.438Z,8.00
2023-04-14T18:53:28.935Z,6.20
2023-04-14T18:55:55.597Z,4.60
2023-04-14T18:58:23.068Z,7.00
2023-04-14T19:00:49.599Z,6.40
2023-04-14T19:03:17.072Z,6.40
2023-04-14T19:05:44.114Z,2.50
2023-04-14T19:08:10.660Z,6.40
2023-04-14T19:10:37.437Z,8.40
2023-04-14T19:13:03.901Z,5.00
2023-04-14T19:15:30.472Z,5.00
2023-04-14T19:17:56.965Z,5.50
2023-04-14T19:20:24.246Z,6.00
2023-04-14T19:22:51.113Z,7.40
2023-04-14T19:25:17.633Z,6.60
2023-04-14T19:27:44.265Z,4.00
2023-04-14T19:30:10.952Z,5.00
2023-04-14T19:32:37.634Z,6.80
2023-04-14T19:35:06.475Z,8.40
2023-04-14T19:37:33.844Z,7.00
2023-04-14T19:40:00.690Z,9.40
2023-04-14T19:42:27.120Z,8.00
2023-04-14T19:44:53.627Z,8.80
2023-04-14T19:47:20.143Z,8.25
2023-04-14T19:49:46.762Z,6.00
2023-04-14T19:52:13.289Z,7.20
2023-04-14T19:54:39.740Z,6.75
2023-04-14T19:57:06.803Z,8.80
2023-04-14T19:59:33.492Z,7.00
2023-04-14T20:02:01.745Z,3.00
2023-04-14T20:04:28.423Z,2.40
2023-04-14T20:06:55.332Z,3.00
2023-04-14T20:09:21.855Z,1.00
2023-04-14T20:11:48.404Z,0.60
2023-04-14T20:14:16.242Z,1.00
2023-04-14T20:16:43.013Z,1.00
2023-04-14T20:19:09.519Z,1.00
2023-04-14T20:21:36.091Z,1.00
2023-04-14T20:24:03.157Z,2.00
2023-04-14T20:26:29.608Z,1.00
2023-04-14T20:28:56.194Z,1.00
2023-04-14T20:31:23.816Z,0.80
2023-04-14T20:33:51.081Z,2.00
2023-04-14T20:36:17.565Z,1.00
2023-04-14T20:38:43.993Z,0.00
2023-04-14T20:41:10.475Z,6.40
2023-04-14T20:43:37.133Z,1.00
2023-04-14T20:46:04.160Z,0.50
2023-04-14T20:48:32.868Z,1.00
2023-04-14T20:51:00.131Z,0.00
2023-04-14T20:53:28.460Z,1.75
2023-04-14T20:55:55.130Z,1.20
2023-04-14T20:58:21.642Z,1.50
2023-04-14T21:00:48.093Z,2.00
2023-04-14T21:03:14.752Z,4.00
2023-04-14T21:05:41.339Z,0.00
2023-04-14T21:08:08.448Z,1.00
2023-04-14T21:10:35.678Z,2.00
2023-04-14T21:15:28.977Z,0.50
2023-04-14T21:16:09.089Z,2.25
2023-04-14T21:18:36.429Z,2.00
2023-04-14T21:21:04.925Z,3.00
2023-04-14T21:23:31.637Z,2.80
2023-04-14T21:25:59.981Z,4.00
2023-04-14T21:28:27.176Z,2.00
2023-04-14T21:31:00.488Z,2.00
2023-04-14T21:33:30.945Z,1.00
2023-04-14T21:36:00.423Z,1.00
2023-04-14T21:38:27.957Z,0.00
2023-04-14T21:40:54.444Z,1.00
2023-04-14T21:43:20.918Z,1.25
2023-04-14T21:45:47.475Z,0.50
2023-04-14T21:48:14.016Z,0.00
2023-04-14T21:50:40.776Z,0.00
2023-04-14T21:53:07.211Z,0.00
2023-04-14T21:55:33.722Z,1.00
2023-04-14T21:58:01.290Z,0.00
2023-04-14T22:00:28.002Z,1.00
2023-04-14T22:02:54.602Z,0.00
2023-04-14T22:05:21.388Z,1.00
2023-04-14T22:07:47.865Z,1.20
2023-04-14T22:10:14.797Z,1.00
2023-04-14T22:12:42.458Z,0.60
2023-04-14T22:15:10.470Z,0.60
2023-04-14T22:17:37.569Z,1.00
2023-04-14T22:20:06.123Z,0.00
2023-04-14T22:22:33.021Z,0.00
2023-04-14T22:25:00.360Z,1.00
2023-04-14T22:27:26.950Z,4.00
2023-04-14T22:29:54.091Z,1.00
2023-04-14T22:32:20.904Z,0.40
2023-04-14T22:34:47.438Z,2.00
2023-04-14T22:37:13.969Z,0.25
2023-04-14T22:39:40.882Z,2.00
2023-04-14T22:42:07.312Z,1.40
2023-04-14T22:44:33.798Z,1.60
2023-04-14T22:47:01.070Z,1.00
2023-04-14T22:49:27.736Z,1.00
2023-04-14T22:51:54.200Z,0.20
2023-04-14T22:54:20.695Z,0.25
2023-04-14T22:56:48.221Z,1.40
2023-04-14T22:59:14.933Z,1.00
2023-04-14T23:01:41.475Z,1.00
2023-04-14T23:04:08.169Z,1.50
2023-04-14T23:06:34.693Z,2.00
2023-04-14T23:09:01.433Z,0.40
2023-04-14T23:11:28.257Z,2.00
2023-04-14T23:13:54.729Z,1.60
2023-04-14T23:16:21.457Z,1.00
2023-04-14T23:18:52.528Z,1.00
2023-04-14T23:21:20.498Z,0.50
2023-04-14T23:23:47.009Z,1.00
2023-04-14T23:26:13.543Z,2.00
2023-04-14T23:28:40.094Z,3.00
2023-04-14T23:31:06.625Z,0.25
2023-04-14T23:33:33.136Z,1.00
2023-04-14T23:35:59.658Z,1.00
2023-04-14T23:38:26.384Z,0.00
2023-04-14T23:40:58.669Z,0.25
2023-04-14T23:43:25.730Z,2.00
2023-04-14T23:45:52.668Z,1.00
2023-04-14T23:48:19.162Z,1.75
2023-04-14T23:50:58.998Z,1.00
2023-04-14T23:53:28.210Z,0.25
2023-04-14T23:55:54.891Z,1.00
2023-04-14T23:58:26.547Z,0.00
